sensor_id;sensor_type;location;lat;lon;timestamp;pressure;altitude;pressure_sealevel;temperature;humidity
10824;BME280;39116;59.332;18.034;2023-02-13T00:02:00;101848.84;;;2.05;100.00
10824;BME280;39116;59.332;18.034;2023-02-13T00:04:23;101839.44;;;2.06;100.00
10824;BME280;39116;59.332;18.034;2023-02-13T00:06:45;101838.28;;;2.01;100.00
10824;BME280;39116;59.332;18.034;2023-02-13T00:09:07;101847.06;;;2.04;100.00
10824;BME280;39116;59.332;18.034;2023-02-13T00:11:31;101837.69;;;2.05;100.00
10824;BME280;39116;59.332;18.034;2023-02-13T00:13:53;101841.75;;;2.01;100.00
10824;BME280;39116;59.332;18.034;2023-02-13T00:16:15;101842.44;;;1.99;100.00
10824;BME280;39116;59.332;18.034;2023-02-13T00:18:38;101836.63;;;2.01;100.00
10824;BME280;39116;59.332;18.034;2023-02-13T00:21:01;101841.03;;;2.04;100.00
10824;BME280;39116;59.332;18.034;2023-02-13T00:23:23;101845.19;;;2.02;100.00
10824;BME280;39116;59.332;18.034;2023-02-13T00:25:45;101835.03;;;2.03;100.00
10824;BME280;39116;59.332;18.034;2023-02-13T00:28:08;101825.28;;;1.98;100.00
10824;BME280;39116;59.332;18.034;2023-02-13T00:30:30;101821.63;;;1.94;100.00
10824;BME280;39116;59.332;18.034;2023-02-13T00:32:52;101836.09;;;2.07;100.00
10824;BME280;39116;59.332;18.034;2023-02-13T00:35:14;101837.84;;;2.08;100.00
10824;BME280;39116;59.332;18.034;2023-02-13T00:37:36;101822.44;;;2.08;100.00
10824;BME280;39116;59.332;18.034;2023-02-13T00:39:58;101824.41;;;2.12;100.00
10824;BME280;39116;59.332;18.034;2023-02-13T00:42:20;101693.50;;;1.41;100.00
10824;BME280;39116;59.332;18.034;2023-02-13T00:44:47;101811.72;;;2.15;100.00
10824;BME280;39116;59.332;18.034;2023-02-13T00:47:09;101809.78;;;2.11;100.00
10824;BME280;39116;59.332;18.034;2023-02-13T00:49:34;101815.53;;;2.07;100.00
10824;BME280;39116;59.332;18.034;2023-02-13T00:51:56;101811.09;;;2.04;100.00
10824;BME280;39116;59.332;18.034;2023-02-13T00:54:18;101809.34;;;2.03;100.00
10824;BME280;39116;59.332;18.034;2023-02-13T00:56:40;101792.88;;;2.00;100.00
10824;BME280;39116;59.332;18.034;2023-02-13T00:59:02;101797.38;;;2.04;100.00
10824;BME280;39116;59.332;18.034;2023-02-13T01:01:25;101808.63;;;2.06;100.00
10824;BME280;39116;59.332;18.034;2023-02-13T01:03:47;101799.59;;;1.98;100.00
10824;BME280;39116;59.332;18.034;2023-02-13T01:06:09;101798.78;;;1.99;100.00
10824;BME280;39116;59.332;18.034;2023-02-13T01:08:31;101792.88;;;2.00;100.00
10824;BME280;39116;59.332;18.034;2023-02-13T01:10:54;101771.22;;;1.81;100.00
10824;BME280;39116;59.332;18.034;2023-02-13T01:13:16;101807.00;;;1.93;100.00
10824;BME280;39116;59.332;18.034;2023-02-13T01:15:39;101794.47;;;1.98;100.00
10824;BME280;39116;59.332;18.034;2023-02-13T01:18:03;101793.47;;;1.96;100.00
10824;BME280;39116;59.332;18.034;2023-02-13T01:20:25;101790.34;;;1.86;100.00
10824;BME280;39116;59.332;18.034;2023-02-13T01:22:48;101779.91;;;1.83;100.00
10824;BME280;39116;59.332;18.034;2023-02-13T01:25:10;101789.84;;;1.92;100.00
10824;BME280;39116;59.332;18.034;2023-02-13T01:27:32;101785.38;;;1.89;100.00
10824;BME280;39116;59.332;18.034;2023-02-13T01:29:54;101785.78;;;1.96;100.00
10824;BME280;39116;59.332;18.034;2023-02-13T01:32:16;101776.72;;;1.87;100.00
10824;BME280;39116;59.332;18.034;2023-02-13T01:34:39;101794.25;;;1.95;100.00
10824;BME280;39116;59.332;18.034;2023-02-13T01:37:01;101790.81;;;1.94;100.00
10824;BME280;39116;59.332;18.034;2023-02-13T01:39:23;101788.59;;;1.85;100.00
10824;BME280;39116;59.332;18.034;2023-02-13T01:41:45;101793.97;;;1.90;100.00
10824;BME280;39116;59.332;18.034;2023-02-13T01:47:02;101657.03;;;1.03;100.00
10824;BME280;39116;59.332;18.034;2023-02-13T01:49:25;101774.56;;;1.80;100.00
10824;BME280;39116;59.332;18.034;2023-02-13T01:51:51;101782.63;;;1.86;100.00
10824;BME280;39116;59.332;18.034;2023-02-13T01:54:16;101754.59;;;1.61;100.00
10824;BME280;39116;59.332;18.034;2023-02-13T01:56:42;101767.50;;;1.76;100.00
10824;BME280;39116;59.332;18.034;2023-02-13T01:59:08;101776.38;;;1.81;100.00
10824;BME280;39116;59.332;18.034;2023-02-13T02:01:32;101779.09;;;1.84;100.00
10824;BME280;39116;59.332;18.034;2023-02-13T02:03:57;101783.25;;;1.82;100.00
10824;BME280;39116;59.332;18.034;2023-02-13T02:06:24;101795.47;;;1.86;100.00
10824;BME280;39116;59.332;18.034;2023-02-13T02:08:49;101783.25;;;1.82;100.00
10824;BME280;39116;59.332;18.034;2023-02-13T02:11:16;101777.50;;;1.86;100.00
10824;BME280;39116;59.332;18.034;2023-02-13T02:13:41;101792.75;;;1.83;100.00
10824;BME280;39116;59.332;18.034;2023-02-13T02:16:04;101783.44;;;1.85;100.00
10824;BME280;39116;59.332;18.034;2023-02-13T02:18:26;101789.75;;;1.90;100.00
10824;BME280;39116;59.332;18.034;2023-02-13T02:21:06;101781.22;;;1.91;100.00
10824;BME280;39116;59.332;18.034;2023-02-13T02:26:45;101774.44;;;1.92;100.00
10824;BME280;39116;59.332;18.034;2023-02-13T02:32:17;101763.44;;;1.95;100.00
10824;BME280;39116;59.332;18.034;2023-02-13T02:34:49;101772.66;;;1.91;100.00
10824;BME280;39116;59.332;18.034;2023-02-13T02:37:23;101780.44;;;1.93;100.00
10824;BME280;39116;59.332;18.034;2023-02-13T02:40:00;101781.31;;;1.93;100.00
10824;BME280;39116;59.332;18.034;2023-02-13T02:42:30;101779.72;;;1.95;100.00
10824;BME280;39116;59.332;18.034;2023-02-13T02:44:59;101775.50;;;1.96;100.00
10824;BME280;39116;59.332;18.034;2023-02-13T02:47:27;101772.56;;;1.89;100.00
10824;BME280;39116;59.332;18.034;2023-02-13T02:50:23;101775.50;;;1.96;100.00
10824;BME280;39116;59.332;18.034;2023-02-13T02:52:56;101777.88;;;1.93;100.00
10824;BME280;39116;59.332;18.034;2023-02-13T02:55:30;101779.63;;;1.94;100.00
10824;BME280;39116;59.332;18.034;2023-02-13T02:58:01;101758.38;;;1.81;100.00
10824;BME280;39116;59.332;18.034;2023-02-13T03:00:43;101779.63;;;1.94;100.00
10824;BME280;39116;59.332;18.034;2023-02-13T03:03:24;101775.31;;;1.93;100.00
10824;BME280;39116;59.332;18.034;2023-02-13T03:06:12;101762.03;;;1.85;100.00
10824;BME280;39116;59.332;18.034;2023-02-13T03:08:36;101770.28;;;1.94;100.00
10824;BME280;39116;59.332;18.034;2023-02-13T03:11:16;101783.03;;;1.93;100.00
10824;BME280;39116;59.332;18.034;2023-02-13T03:13:56;101776.38;;;1.96;100.00
10824;BME280;39116;59.332;18.034;2023-02-13T03:16:23;101770.44;;;1.97;100.00
10824;BME280;39116;59.332;18.034;2023-02-13T03:19:05;101761.84;;;1.97;100.00
10824;BME280;39116;59.332;18.034;2023-02-13T03:21:54;101765.59;;;2.02;100.00
10824;BME280;39116;59.332;18.034;2023-02-13T03:24:43;101745.28;;;1.91;100.00
10824;BME280;39116;59.332;18.034;2023-02-13T03:27:09;101755.66;;;1.93;100.00
10824;BME280;39116;59.332;18.034;2023-02-13T03:29:43;101748.91;;;1.95;100.00
10824;BME280;39116;59.332;18.034;2023-02-13T03:32:27;101764.72;;;2.01;100.00
10824;BME280;39116;59.332;18.034;2023-02-13T03:35:02;101764.72;;;2.01;100.00
10824;BME280;39116;59.332;18.034;2023-02-13T03:37:47;101647.22;;;1.39;100.00
10824;BME280;39116;59.332;18.034;2023-02-13T03:40:21;101770.91;;;2.05;100.00
10824;BME280;39116;59.332;18.034;2023-02-13T03:42:47;101774.34;;;2.05;100.00
10824;BME280;39116;59.332;18.034;2023-02-13T03:45:15;101766.31;;;1.99;100.00
10824;BME280;39116;59.332;18.034;2023-02-13T03:48:00;101766.47;;;2.02;100.00
10824;BME280;39116;59.332;18.034;2023-02-13T03:50:30;101765.69;;;2.03;100.00
10824;BME280;39116;59.332;18.034;2023-02-13T03:52:53;101767.63;;;2.07;100.00
10824;BME280;39116;59.332;18.034;2023-02-13T03:55:18;101758.06;;;2.05;100.00
10824;BME280;39116;59.332;18.034;2023-02-13T03:58:04;101744.69;;;1.96;100.00
10824;BME280;39116;59.332;18.034;2023-02-13T04:00:49;101757.25;;;2.06;100.00
10824;BME280;39116;59.332;18.034;2023-02-13T04:03:14;101752.75;;;2.02;100.00
10824;BME280;39116;59.332;18.034;2023-02-13T04:05:42;101747.50;;;2.00;100.00
10824;BME280;39116;59.332;18.034;2023-02-13T04:08:05;101750.91;;;1.99;100.00
10824;BME280;39116;59.332;18.034;2023-02-13T04:10:30;101758.31;;;1.95;100.00
10824;BME280;39116;59.332;18.034;2023-02-13T04:12:59;101760.25;;;1.99;100.00
10824;BME280;39116;59.332;18.034;2023-02-13T04:15:27;101748.22;;;1.98;100.00
10824;BME280;39116;59.332;18.034;2023-02-13T04:17:54;101756.03;;;1.99;100.00
10824;BME280;39116;59.332;18.034;2023-02-13T04:20:17;101741.13;;;1.94;100.00
10824;BME280;39116;59.332;18.034;2023-02-13T04:22:45;101749.81;;;1.96;100.00
10824;BME280;39116;59.332;18.034;2023-02-13T04:25:07;101758.66;;;2.01;100.00
10824;BME280;39116;59.332;18.034;2023-02-13T04:27:29;101755.94;;;1.98;100.00
10824;BME280;39116;59.332;18.034;2023-02-13T04:29:51;101753.28;;;1.96;100.00
10824;BME280;39116;59.332;18.034;2023-02-13T04:32:13;101743.97;;;1.98;100.00
10824;BME280;39116;59.332;18.034;2023-02-13T04:34:36;101751.78;;;2.00;100.00
10824;BME280;39116;59.332;18.034;2023-02-13T04:36:58;101733.41;;;1.94;100.00
10824;BME280;39116;59.332;18.034;2023-02-13T04:39:22;101734.56;;;1.99;100.00
10824;BME280;39116;59.332;18.034;2023-02-13T04:41:44;101744.84;;;1.99;100.00
10824;BME280;39116;59.332;18.034;2023-02-13T04:44:06;101736.16;;;1.97;100.00
10824;BME280;39116;59.332;18.034;2023-02-13T04:46:28;101722.56;;;1.98;100.00
10824;BME280;39116;59.332;18.034;2023-02-13T04:48:50;101739.19;;;2.04;100.00
10824;BME280;39116;59.332;18.034;2023-02-13T04:51:13;101745.75;;;1.99;100.00
10824;BME280;39116;59.332;18.034;2023-02-13T04:53:35;101754.25;;;1.98;100.00
10824;BME280;39116;59.332;18.034;2023-02-13T04:55:58;101744.16;;;2.01;100.00
10824;BME280;39116;59.332;18.034;2023-02-13T04:58:20;101749.63;;;1.93;100.00
10824;BME280;39116;59.332;18.034;2023-02-13T05:00:42;101747.16;;;1.94;100.00
10824;BME280;39116;59.332;18.034;2023-02-13T05:03:05;101752.81;;;1.88;100.00
10824;BME280;39116;59.332;18.034;2023-02-13T05:05:27;101756.38;;;1.90;100.00
10824;BME280;39116;59.332;18.034;2023-02-13T05:07:49;101752.97;;;1.91;100.00
10824;BME280;39116;59.332;18.034;2023-02-13T05:10:11;101744.31;;;1.89;100.00
10824;BME280;39116;59.332;18.034;2023-02-13T05:12:35;101755.56;;;1.91;100.00
10824;BME280;39116;59.332;18.034;2023-02-13T05:14:57;101754.78;;;1.93;100.00
10824;BME280;39116;59.332;18.034;2023-02-13T05:17:19;101756.72;;;1.97;100.00
10824;BME280;39116;59.332;18.034;2023-02-13T05:19:41;101760.16;;;1.97;100.00
10824;BME280;39116;59.332;18.034;2023-02-13T05:22:03;101762.66;;;1.96;100.00
10824;BME280;39116;59.332;18.034;2023-02-13T05:24:42;101755.56;;;1.91;100.00
10824;BME280;39116;59.332;18.034;2023-02-13T05:27:04;101761.94;;;1.98;100.00
10824;BME280;39116;59.332;18.034;2023-02-13T05:29:28;101730.22;;;1.83;100.00
10824;BME280;39116;59.332;18.034;2023-02-13T05:31:51;101756.19;;;2.02;100.00
10824;BME280;39116;59.332;18.034;2023-02-13T05:34:13;101763.78;;;2.01;100.00
10824;BME280;39116;59.332;18.034;2023-02-13T05:36:35;101757.78;;;2.00;100.00
10824;BME280;39116;59.332;18.034;2023-02-13T05:38:57;101763.44;;;1.95;100.00
10824;BME280;39116;59.332;18.034;2023-02-13T05:41:19;101777.25;;;1.97;100.00
10824;BME280;39116;59.332;18.034;2023-02-13T05:43:41;101766.63;;;1.90;100.00
10824;BME280;39116;59.332;18.034;2023-02-13T05:46:06;101776.38;;;1.96;100.00
10824;BME280;39116;59.332;18.034;2023-02-13T05:48:28;101775.50;;;1.96;100.00
10824;BME280;39116;59.332;18.034;2023-02-13T05:50:50;101775.94;;;1.88;100.00
10824;BME280;39116;59.332;18.034;2023-02-13T05:53:12;101785.84;;;1.97;100.00
10824;BME280;39116;59.332;18.034;2023-02-13T05:55:34;101780.66;;;1.96;100.00
10824;BME280;39116;59.332;18.034;2023-02-13T05:57:56;101791.50;;;1.91;100.00
10824;BME280;39116;59.332;18.034;2023-02-13T06:00:20;101794.47;;;1.98;100.00
10824;BME280;39116;59.332;18.034;2023-02-13T06:02:43;101812.44;;;1.98;100.00
10824;BME280;39116;59.332;18.034;2023-02-13T06:05:05;101819.94;;;1.95;100.00
10824;BME280;39116;59.332;18.034;2023-02-13T06:07:28;101823.47;;;1.97;100.00
10824;BME280;39116;59.332;18.034;2023-02-13T06:09:50;101804.72;;;1.98;100.00
10824;BME280;39116;59.332;18.034;2023-02-13T06:12:11;101820.66;;;1.92;100.00
10824;BME280;39116;59.332;18.034;2023-02-13T06:14:33;101815.44;;;1.90;100.00
10824;BME280;39116;59.332;18.034;2023-02-13T06:16:56;101813.28;;;1.83;100.00
10824;BME280;39116;59.332;18.034;2023-02-13T06:19:19;101826.22;;;1.85;100.00
10824;BME280;39116;59.332;18.034;2023-02-13T06:21:41;101847.41;;;1.96;100.00
10824;BME280;39116;59.332;18.034;2023-02-13T06:24:03;101849.50;;;1.88;100.00
10824;BME280;39116;59.332;18.034;2023-02-13T06:26:25;101861.81;;;1.94;100.00
10824;BME280;39116;59.332;18.034;2023-02-13T06:28:47;101864.38;;;1.94;100.00
10824;BME280;39116;59.332;18.034;2023-02-13T06:31:09;101851.38;;;1.90;100.00
10824;BME280;39116;59.332;18.034;2023-02-13T06:33:31;101841.53;;;1.83;100.00
10824;BME280;39116;59.332;18.034;2023-02-13T06:35:54;101844.88;;;1.82;100.00
10824;BME280;39116;59.332;18.034;2023-02-13T06:38:17;101842.91;;;1.78;100.00
10824;BME280;39116;59.332;18.034;2023-02-13T06:40:39;101837.69;;;1.77;100.00
10824;BME280;39116;59.332;18.034;2023-02-13T06:43:01;101830.50;;;1.71;100.00
10824;BME280;39116;59.332;18.034;2023-02-13T06:45:23;101832.25;;;1.72;100.00
10824;BME280;39116;59.332;18.034;2023-02-13T06:47:46;101830.66;;;1.74;100.00
10824;BME280;39116;59.332;18.034;2023-02-13T06:50:09;101817.09;;;1.62;100.00
10824;BME280;39116;59.332;18.034;2023-02-13T06:52:34;101837.22;;;1.69;100.00
10824;BME280;39116;59.332;18.034;2023-02-13T06:54:56;101831.38;;;1.71;100.00
10824;BME280;39116;59.332;18.034;2023-02-13T06:57:18;101828.72;;;1.70;100.00
10824;BME280;39116;59.332;18.034;2023-02-13T06:59:40;101837.59;;;1.75;100.00
10824;BME280;39116;59.332;18.034;2023-02-13T07:02:02;101832.34;;;1.74;100.00
10824;BME280;39116;59.332;18.034;2023-02-13T07:04:24;101834.91;;;1.74;100.00
10824;BME280;39116;59.332;18.034;2023-02-13T07:06:46;101825.16;;;1.68;100.00
10824;BME280;39116;59.332;18.034;2023-02-13T07:09:09;101847.84;;;1.75;100.00
10824;BME280;39116;59.332;18.034;2023-02-13T07:11:32;101845.59;;;1.66;100.00
10824;BME280;39116;59.332;18.034;2023-02-13T07:13:54;101842.72;;;1.75;100.00
10824;BME280;39116;59.332;18.034;2023-02-13T07:16:17;101852.31;;;1.78;100.00
10824;BME280;39116;59.332;18.034;2023-02-13T07:18:39;101836.50;;;1.71;100.00
10824;BME280;39116;59.332;18.034;2023-02-13T07:21:01;101840.94;;;1.74;100.00
10824;BME280;39116;59.332;18.034;2023-02-13T07:23:23;101839.06;;;1.71;100.00
10824;BME280;39116;59.332;18.034;2023-02-13T07:25:46;101836.81;;;1.76;100.00
10824;BME280;39116;59.332;18.034;2023-02-13T07:28:08;101788.28;;;1.52;100.00
10824;BME280;39116;59.332;18.034;2023-02-13T07:30:30;101816.84;;;1.72;100.00
10824;BME280;39116;59.332;18.034;2023-02-13T07:32:53;101825.94;;;1.67;100.00
10824;BME280;39116;59.332;18.034;2023-02-13T07:35:18;101825.88;;;1.65;100.00
10824;BME280;39116;59.332;18.034;2023-02-13T07:37:40;101832.78;;;1.66;100.00
10824;BME280;39116;59.332;18.034;2023-02-13T07:40:03;101802.13;;;1.55;100.00
10824;BME280;39116;59.332;18.034;2023-02-13T07:42:27;101831.47;;;1.73;100.00
10824;BME280;39116;59.332;18.034;2023-02-13T07:44:49;101828.59;;;1.68;100.00
10824;BME280;39116;59.332;18.034;2023-02-13T07:47:11;101848.38;;;1.69;100.00
10824;BME280;39116;59.332;18.034;2023-02-13T07:49:33;101834.41;;;1.79;100.00
10824;BME280;39116;59.332;18.034;2023-02-13T07:51:56;101823.06;;;1.76;100.00
10824;BME280;39116;59.332;18.034;2023-02-13T07:54:19;101829.28;;;1.79;100.00
10824;BME280;39116;59.332;18.034;2023-02-13T07:56:40;101826.25;;;1.71;100.00
10824;BME280;39116;59.332;18.034;2023-02-13T07:59:04;101831.06;;;1.80;100.00
10824;BME280;39116;59.332;18.034;2023-02-13T08:01:26;101833.00;;;1.84;100.00
10824;BME280;39116;59.332;18.034;2023-02-13T08:03:48;101839.31;;;1.89;100.00
10824;BME280;39116;59.332;18.034;2023-02-13T08:06:11;101840.50;;;1.95;100.00
10824;BME280;39116;59.332;18.034;2023-02-13T08:08:33;101837.91;;;1.95;100.00
10824;BME280;39116;59.332;18.034;2023-02-13T08:11:02;101857.16;;;2.01;100.00
10824;BME280;39116;59.332;18.034;2023-02-13T08:13:43;101871.53;;;2.13;100.00
10824;BME280;39116;59.332;18.034;2023-02-13T08:16:07;101865.63;;;2.14;100.00
10824;BME280;39116;59.332;18.034;2023-02-13T08:18:29;101860.75;;;2.18;100.00
10824;BME280;39116;59.332;18.034;2023-02-13T08:20:50;101883.44;;;2.25;100.00
10824;BME280;39116;59.332;18.034;2023-02-13T08:23:13;101878.91;;;2.21;100.00
10824;BME280;39116;59.332;18.034;2023-02-13T08:25:36;101871.88;;;2.19;100.00
10824;BME280;39116;59.332;18.034;2023-02-13T08:27:58;101864.66;;;2.26;100.00
10824;BME280;39116;59.332;18.034;2023-02-13T08:30:21;101876.53;;;2.24;100.00
10824;BME280;39116;59.332;18.034;2023-02-13T08:32:44;101877.75;;;2.31;100.00
10824;BME280;39116;59.332;18.034;2023-02-13T08:35:07;101869.47;;;2.35;100.00
10824;BME280;39116;59.332;18.034;2023-02-13T08:37:28;101884.72;;;2.47;100.00
10824;BME280;39116;59.332;18.034;2023-02-13T08:39:50;101888.09;;;2.61;100.00
10824;BME280;39116;59.332;18.034;2023-02-13T08:42:12;101898.56;;;2.64;100.00
10824;BME280;39116;59.332;18.034;2023-02-13T08:44:34;101773.63;;;1.93;100.00
10824;BME280;39116;59.332;18.034;2023-02-13T08:46:56;101893.78;;;2.70;100.00
10824;BME280;39116;59.332;18.034;2023-02-13T08:49:22;101903.00;;;2.81;100.00
10824;BME280;39116;59.332;18.034;2023-02-13T08:51:44;101911.16;;;2.74;100.00
10824;BME280;39116;59.332;18.034;2023-02-13T08:54:06;101906.28;;;2.79;100.00
10824;BME280;39116;59.332;18.034;2023-02-13T08:56:28;101914.34;;;2.85;100.00
10824;BME280;39116;59.332;18.034;2023-02-13T08:58:50;101899.97;;;2.89;100.00
10824;BME280;39116;59.332;18.034;2023-02-13T09:01:12;101905.66;;;2.98;100.00
10824;BME280;39116;59.332;18.034;2023-02-13T09:03:34;101901.75;;;3.04;100.00
10824;BME280;39116;59.332;18.034;2023-02-13T09:05:59;101913.47;;;3.14;100.00
10824;BME280;39116;59.332;18.034;2023-02-13T09:08:21;101911.50;;;3.25;100.00
10824;BME280;39116;59.332;18.034;2023-02-13T09:10:43;101907.84;;;3.36;100.00
10824;BME280;39116;59.332;18.034;2023-02-13T09:13:06;101904.44;;;3.37;100.00
10824;BME280;39116;59.332;18.034;2023-02-13T09:15:28;101904.44;;;3.37;100.00
10824;BME280;39116;59.332;18.034;2023-02-13T09:17:49;101907.72;;;3.50;100.00
10824;BME280;39116;59.332;18.034;2023-02-13T09:20:12;101908.41;;;3.62;100.00
10824;BME280;39116;59.332;18.034;2023-02-13T09:22:36;101896.66;;;3.67;100.00
10824;BME280;39116;59.332;18.034;2023-02-13T09:24:57;101873.97;;;3.60;100.00
10824;BME280;39116;59.332;18.034;2023-02-13T09:27:23;101894.75;;;3.79;100.00
10824;BME280;39116;59.332;18.034;2023-02-13T09:29:45;101887.22;;;3.82;100.00
10824;BME280;39116;59.332;18.034;2023-02-13T09:32:07;101879.00;;;3.90;100.00
10824;BME280;39116;59.332;18.034;2023-02-13T09:34:29;101886.97;;;3.94;100.00
10824;BME280;39116;59.332;18.034;2023-02-13T09:36:51;101890.75;;;4.01;100.00
10824;BME280;39116;59.332;18.034;2023-02-13T09:39:14;101883.19;;;4.04;100.00
10824;BME280;39116;59.332;18.034;2023-02-13T09:41:38;101886.00;;;4.09;100.00
10824;BME280;39116;59.332;18.034;2023-02-13T09:44:05;101880.53;;;4.19;100.00
10824;BME280;39116;59.332;18.034;2023-02-13T09:46:33;101881.88;;;4.29;100.00
10824;BME280;39116;59.332;18.034;2023-02-13T09:48:58;101886.09;;;4.27;100.00
10824;BME280;39116;59.332;18.034;2023-02-13T09:51:22;101882.22;;;4.35;100.00
10824;BME280;39116;59.332;18.034;2023-02-13T09:53:49;101872.72;;;4.34;100.00
10824;BME280;39116;59.332;18.034;2023-02-13T09:56:15;101888.91;;;4.31;100.00
10824;BME280;39116;59.332;18.034;2023-02-13T09:58:42;101865.06;;;4.35;100.00
10824;BME280;39116;59.332;18.034;2023-02-13T10:01:17;101875.25;;;4.50;100.00
10824;BME280;39116;59.332;18.034;2023-02-13T10:03:43;101879.88;;;4.39;100.00
10824;BME280;39116;59.332;18.034;2023-02-13T10:06:13;101880.22;;;4.29;100.00
10824;BME280;39116;59.332;18.034;2023-02-13T10:08:45;101833.19;;;4.00;100.00
10824;BME280;39116;59.332;18.034;2023-02-13T10:14:05;101885.09;;;4.41;100.00
10824;BME280;39116;59.332;18.034;2023-02-13T10:16:34;101863.53;;;4.39;100.00
10824;BME280;39116;59.332;18.034;2023-02-13T10:19:01;101894.84;;;4.63;100.00
10824;BME280;39116;59.332;18.034;2023-02-13T10:21:29;101895.34;;;4.56;100.00
10824;BME280;39116;59.332;18.034;2023-02-13T10:23:57;101902.63;;;4.65;100.00
10824;BME280;39116;59.332;18.034;2023-02-13T10:26:21;101900.78;;;4.62;100.00
10824;BME280;39116;59.332;18.034;2023-02-13T10:29:06;101864.19;;;4.35;100.00
10824;BME280;39116;59.332;18.034;2023-02-13T10:31:48;101896.19;;;4.73;100.00
10824;BME280;39116;59.332;18.034;2023-02-13T10:34:15;101906.50;;;4.73;100.00
10824;BME280;39116;59.332;18.034;2023-02-13T10:36:42;101914.25;;;4.73;100.00
10824;BME280;39116;59.332;18.034;2023-02-13T10:39:18;101908.91;;;4.70;100.00
10824;BME280;39116;59.332;18.034;2023-02-13T10:41:49;101912.13;;;4.82;100.00
10824;BME280;39116;59.332;18.034;2023-02-13T10:44:22;101921.66;;;4.83;100.00
10824;BME280;39116;59.332;18.034;2023-02-13T10:46:56;101916.31;;;4.80;100.00
10824;BME280;39116;59.332;18.034;2023-02-13T10:49:33;101918.47;;;4.89;100.00
10824;BME280;39116;59.332;18.034;2023-02-13T10:52:03;101920.31;;;4.91;100.00
10824;BME280;39116;59.332;18.034;2023-02-13T10:54:43;101914.34;;;4.92;100.00
10824;BME280;39116;59.332;18.034;2023-02-13T10:57:13;101906.75;;;4.77;100.00
10824;BME280;39116;59.332;18.034;2023-02-13T10:59:52;101912.38;;;5.05;100.00
10824;BME280;39116;59.332;18.034;2023-02-13T11:02:22;101920.94;;;5.04;100.00
10824;BME280;39116;59.332;18.034;2023-02-13T11:04:44;101913.53;;;4.93;100.00
10824;BME280;39116;59.332;18.034;2023-02-13T11:07:10;101930.22;;;5.00;100.00
10824;BME280;39116;59.332;18.034;2023-02-13T11:09:39;101925.94;;;5.01;100.00
10824;BME280;39116;59.332;18.034;2023-02-13T11:12:22;101905.16;;;4.97;100.00
10824;BME280;39116;59.332;18.034;2023-02-13T11:14:53;101929.53;;;5.21;100.00
10824;BME280;39116;59.332;18.034;2023-02-13T11:17:17;101911.66;;;5.07;100.00
10824;BME280;39116;59.332;18.034;2023-02-13T11:19:47;101922.41;;;5.16;100.00
10824;BME280;39116;59.332;18.034;2023-02-13T11:22:12;101902.56;;;4.97;100.00
10824;BME280;39116;59.332;18.034;2023-02-13T11:24:35;101941.41;;;5.35;100.00
10824;BME280;39116;59.332;18.034;2023-02-13T11:27:01;101954.75;;;5.26;100.00
10824;BME280;39116;59.332;18.034;2023-02-13T11:29:29;101951.16;;;5.41;100.00
10824;BME280;39116;59.332;18.034;2023-02-13T11:32:18;101938.22;;;5.41;100.00
10824;BME280;39116;59.332;18.034;2023-02-13T11:34:40;101957.63;;;5.32;100.00
10824;BME280;39116;59.332;18.034;2023-02-13T11:37:23;101946.50;;;5.33;100.00
10824;BME280;39116;59.332;18.034;2023-02-13T11:39:47;101921.63;;;5.35;100.00
10824;BME280;39116;59.332;18.034;2023-02-13T11:42:12;101939.84;;;5.39;100.00
10824;BME280;39116;59.332;18.034;2023-02-13T11:44:35;101946.94;;;5.43;100.00
10824;BME280;39116;59.332;18.034;2023-02-13T11:46:59;101936.88;;;5.49;100.00
10824;BME280;39116;59.332;18.034;2023-02-13T11:49:24;101938.94;;;5.56;100.00
10824;BME280;39116;59.332;18.034;2023-02-13T11:51:49;101946.03;;;5.78;100.00
10824;BME280;39116;59.332;18.034;2023-02-13T11:54:25;101956.81;;;5.69;100.00
10824;BME280;39116;59.332;18.034;2023-02-13T11:56:51;101961.75;;;5.83;100.00
10824;BME280;39116;59.332;18.034;2023-02-13T11:59:13;101953.88;;;5.80;100.00
10824;BME280;39116;59.332;18.034;2023-02-13T12:01:35;101967.66;;;5.80;100.00
10824;BME280;39116;59.332;18.034;2023-02-13T12:04:02;101969.28;;;5.78;100.00
10824;BME280;39116;59.332;18.034;2023-02-13T12:06:26;101961.28;;;5.91;100.00
10824;BME280;39116;59.332;18.034;2023-02-13T12:08:48;101947.53;;;5.73;100.00
10824;BME280;39116;59.332;18.034;2023-02-13T12:11:19;101955.63;;;5.81;100.00
10824;BME280;39116;59.332;18.034;2023-02-13T12:13:44;101962.56;;;5.82;100.00
10824;BME280;39116;59.332;18.034;2023-02-13T12:16:10;101974.81;;;5.86;100.00
10824;BME280;39116;59.332;18.034;2023-02-13T12:18:37;101976.59;;;5.87;100.00
10824;BME280;39116;59.332;18.034;2023-02-13T12:21:04;101964.63;;;6.07;100.00
10824;BME280;39116;59.332;18.034;2023-02-13T12:23:39;101968.91;;;6.06;100.00
10824;BME280;39116;59.332;18.034;2023-02-13T12:26:16;101964.72;;;6.08;100.00
10824;BME280;39116;59.332;18.034;2023-02-13T12:28:55;101970.41;;;6.01;100.00
10824;BME280;39116;59.332;18.034;2023-02-13T12:31:37;101967.72;;;6.18;100.00
10824;BME280;39116;59.332;18.034;2023-02-13T12:34:43;101869.97;;;5.53;100.00
10824;BME280;39116;59.332;18.034;2023-02-13T12:37:17;101968.75;;;6.21;100.00
10824;BME280;39116;59.332;18.034;2023-02-13T12:39:47;101984.16;;;6.20;100.00
10824;BME280;39116;59.332;18.034;2023-02-13T12:42:24;101993.09;;;6.26;100.00
10824;BME280;39116;59.332;18.034;2023-02-13T12:44:56;101987.44;;;6.16;100.00
10824;BME280;39116;59.332;18.034;2023-02-13T12:47:25;101989.03;;;6.14;100.00